Time;durP1;ratioP1;P1;durP2;ratioP2;P2;SDS_P1;SDS_P2;PMS_P1;PMS_P2;Temp;Humidity;BMP_temperature;BMP_pressure;BME280_temperature;BME280_humidity;BME280_pressure;Samples;Min_cycle;Max_cycle;Signal;HPM_P1;HPM_P2
2021/10/06 00:01:55;;;;;;;13.40;7.80;;;;;;;7.97;100.00;100421.69;1601559;88;21073;-64
2021/10/06 00:04:23;;;;;;;10.45;7.28;;;;;;;7.93;100.00;100420.72;1601260;88;20963;-64
2021/10/06 00:06:51;;;;;;;13.38;8.20;;;;;;;7.85;100.00;100418.33;1601453;88;21485;-64
2021/10/06 00:09:19;;;;;;;10.23;7.15;;;;;;;7.77;100.00;100419.45;1601476;88;21494;-63
2021/10/06 00:11:47;;;;;;;10.43;7.37;;;;;;;7.66;100.00;100424.86;1601413;88;21473;-63
2021/10/06 00:14:17;;;;;;;12.20;8.15;;;;;;;7.58;100.00;100427.29;1601528;88;21923;-63
2021/10/06 00:16:45;;;;;;;11.30;7.65;;;;;;;7.51;100.00;100421.38;1601479;88;20979;-63
2021/10/06 00:19:13;;;;;;;11.00;6.78;;;;;;;7.50;100.00;100431.42;1601637;88;20987;-64
2021/10/06 00:21:41;;;;;;;13.85;7.92;;;;;;;7.48;100.00;100425.23;1601694;88;21055;-65
2021/10/06 00:24:09;;;;;;;12.05;7.22;;;;;;;7.46;100.00;100428.25;1601547;88;21462;-63
2021/10/06 00:26:37;;;;;;;10.82;7.78;;;;;;;7.44;100.00;100426.00;1601792;88;21106;-63
2021/10/06 00:29:06;;;;;;;12.05;7.72;;;;;;;7.45;100.00;100422.95;1601670;88;20927;-63
2021/10/06 00:31:33;;;;;;;14.20;7.35;;;;;;;7.46;100.00;100422.11;1601545;88;21023;-63
2021/10/06 00:34:02;;;;;;;12.65;7.28;;;;;;;7.44;100.00;100417.23;1592849;88;21067;-65
2021/10/06 00:36:29;;;;;;;10.63;8.10;;;;;;;7.44;100.00;100422.06;1592271;89;21004;-63
2021/10/06 00:38:57;;;;;;;10.05;7.78;;;;;;;7.43;100.00;100420.29;1592088;89;21506;-63
2021/10/06 00:41:25;;;;;;;12.50;7.95;;;;;;;7.43;100.00;100417.66;1591751;89;20912;-63
2021/10/06 00:43:53;;;;;;;11.00;7.85;;;;;;;7.48;100.00;100422.61;1591902;89;21561;-63
2021/10/06 00:46:21;;;;;;;17.00;7.85;;;;;;;7.52;100.00;100417.02;1592659;89;20991;-63
2021/10/06 00:48:49;;;;;;;10.40;8.00;;;;;;;7.52;100.00;100420.95;1592160;89;21474;-63
2021/10/06 00:51:20;;;;;;;10.93;7.80;;;;;;;7.52;100.00;100423.16;1592205;89;21872;-63
2021/10/06 00:53:47;;;;;;;12.58;7.80;;;;;;;7.53;100.00;100423.63;1591902;89;21031;-63
2021/10/06 00:56:17;;;;;;;13.20;7.67;;;;;;;7.53;100.00;100424.05;1592242;89;21478;-63
2021/10/06 00:58:45;;;;;;;10.90;7.83;;;;;;;7.50;100.00;100411.73;1592051;89;21439;-64
2021/10/06 01:01:13;;;;;;;16.50;8.15;;;;;;;7.46;100.00;100411.18;1592392;89;21067;-65
2021/10/06 01:03:40;;;;;;;46.20;10.30;;;;;;;7.43;100.00;100415.04;1591850;89;21125;-64
2021/10/06 01:06:09;;;;;;;17.73;8.03;;;;;;;7.40;100.00;100413.64;1592265;89;21503;-64
2021/10/06 01:08:36;;;;;;;10.80;7.72;;;;;;;7.36;100.00;100418.34;1592249;88;21083;-65
2021/10/06 01:11:04;;;;;;;10.63;8.15;;;;;;;7.34;100.00;100417.84;1592408;89;21091;-66
2021/10/06 01:13:32;;;;;;;10.18;7.75;;;;;;;7.30;100.00;100419.92;1591916;89;21530;-64
2021/10/06 01:16:00;;;;;;;10.85;7.65;;;;;;;7.27;100.00;100419.42;1591900;89;21555;-64
2021/10/06 01:18:28;;;;;;;11.97;8.60;;;;;;;7.25;100.00;100422.00;1592043;89;20987;-64
2021/10/06 01:20:56;;;;;;;13.32;8.58;;;;;;;7.23;100.00;100419.75;1592410;89;21035;-65
2021/10/06 01:23:24;;;;;;;15.53;8.28;;;;;;;7.22;100.00;100418.41;1591807;89;20995;-64
2021/10/06 01:25:52;;;;;;;13.65;8.10;;;;;;;7.21;100.00;100416.20;1587072;89;21479;-64
2021/10/06 01:28:19;;;;;;;12.88;8.05;;;;;;;7.23;100.00;100411.88;1591234;89;21116;-64
2021/10/06 01:30:47;;;;;;;12.10;7.97;;;;;;;7.25;100.00;100407.56;1592093;89;21475;-64
2021/10/06 01:33:15;;;;;;;12.93;7.53;;;;;;;7.25;100.00;100406.25;1592145;88;21038;-66
2021/10/06 01:35:44;;;;;;;11.38;8.00;;;;;;;7.26;100.00;100407.14;1592187;89;20999;-64
2021/10/06 01:38:11;;;;;;;14.20;8.45;;;;;;;7.25;100.00;100407.56;1591996;89;20984;-64
2021/10/06 01:40:39;;;;;;;9.98;6.97;;;;;;;7.23;100.00;100417.13;1592299;88;21055;-65
2021/10/06 01:43:07;;;;;;;13.70;7.42;;;;;;;7.22;100.00;100419.30;1592423;89;21075;-64
2021/10/06 01:45:34;;;;;;;9.98;7.85;;;;;;;7.19;100.00;100417.01;1592278;89;20899;-64
2021/10/06 01:48:08;;;;;;;12.03;7.15;;;;;;;7.17;100.00;100420.91;1592293;89;20992;-64
2021/10/06 01:50:37;;;;;;;15.28;7.50;;;;;;;7.17;100.00;100421.33;1592167;89;21009;-64
2021/10/06 01:53:05;;;;;;;10.85;7.55;;;;;;;7.16;100.00;100420.44;1592497;89;21462;-65
2021/10/06 01:55:34;;;;;;;13.70;7.62;;;;;;;7.13;100.00;100431.27;1592209;89;20907;-65
2021/10/06 01:58:05;;;;;;;10.95;7.67;;;;;;;7.05;100.00;100430.13;1592430;89;20984;-65
2021/10/06 02:00:34;;;;;;;11.15;7.95;;;;;;;6.98;100.00;100439.56;1591508;89;20936;-64
2021/10/06 02:03:03;;;;;;;12.05;8.20;;;;;;;6.90;100.00;100444.59;1592482;89;21019;-65
2021/10/06 02:05:33;;;;;;;15.85;7.92;;;;;;;6.83;100.00;100441.74;1592117;89;21118;-65
2021/10/06 02:08:03;;;;;;;10.28;7.58;;;;;;;6.81;100.00;100443.01;1592416;89;21470;-65
2021/10/06 02:10:39;;;;;;;10.18;7.92;;;;;;;6.82;100.00;100443.91;1592273;89;20991;-65
2021/10/06 02:13:06;;;;;;;12.33;7.72;;;;;;;6.80;100.00;100445.17;1592135;89;21016;-64
2021/10/06 02:15:34;;;;;;;17.32;7.87;;;;;;;6.78;100.00;100453.41;1592087;89;20995;-65
2021/10/06 02:18:05;;;;;;;12.60;7.97;;;;;;;6.77;100.00;100461.23;1592361;89;21109;-65
2021/10/06 02:20:32;;;;;;;16.10;8.70;;;;;;;6.71;100.00;100463.25;1592212;89;21486;-65
2021/10/06 02:23:00;;;;;;;12.37;8.35;;;;;;;6.67;100.00;100458.76;1592432;89;20935;-65
2021/10/06 02:25:27;;;;;;;10.65;7.90;;;;;;;6.67;100.00;100460.49;1592094;89;21071;-64
2021/10/06 02:27:55;;;;;;;11.90;7.60;;;;;;;6.67;100.00;100469.25;1592571;89;20983;-64
2021/10/06 02:30:23;;;;;;;17.20;7.33;;;;;;;6.68;100.00;100471.02;1592206;89;21124;-65
2021/10/06 02:32:51;;;;;;;11.25;7.47;;;;;;;6.72;100.00;100468.96;1591849;89;21052;-65
2021/10/06 02:35:19;;;;;;;14.33;8.18;;;;;;;6.76;100.00;100476.08;1592197;89;21028;-63
2021/10/06 02:37:47;;;;;;;12.90;7.92;;;;;;;6.76;100.00;100469.52;1591824;89;21000;-63
2021/10/06 02:40:17;;;;;;;14.35;8.58;;;;;;;6.76;100.00;100476.08;1592300;89;21467;-63
2021/10/06 02:42:47;;;;;;;14.68;8.43;;;;;;;6.75;100.00;100470.37;1592213;89;21203;-63
2021/10/06 02:45:15;;;;;;;11.83;7.97;;;;;;;6.76;100.00;100472.14;1574537;90;21053;-64
2021/10/06 02:47:43;;;;;;;15.45;8.15;;;;;;;6.79;100.00;100470.92;1574575;89;21034;-64
2021/10/06 02:50:12;;;;;;;14.10;8.10;;;;;;;6.79;100.00;100474.86;1592291;89;21605;-66
2021/10/06 02:52:40;;;;;;;11.53;8.33;;;;;;;6.81;100.00;100477.11;1592387;89;20951;-63
2021/10/06 02:55:08;;;;;;;11.55;8.20;;;;;;;6.77;100.00;100472.61;1592146;89;21506;-64
2021/10/06 02:57:36;;;;;;;13.83;7.80;;;;;;;6.77;100.00;100471.30;1592011;89;20976;-64
2021/10/06 03:00:09;;;;;;;10.32;7.47;;;;;;;6.77;100.00;100479.59;1585645;89;20909;-64
2021/10/06 03:02:39;;;;;;;12.60;8.15;;;;;;;6.76;100.00;100483.05;1571846;90;20989;-63
2021/10/06 03:05:08;;;;;;;12.98;8.70;;;;;;;6.73;100.00;100481.23;1570474;90;21506;-63
2021/10/06 03:07:36;;;;;;;17.25;8.53;;;;;;;6.72;100.00;100484.70;1571846;90;21452;-63
2021/10/06 03:10:06;;;;;;;12.47;7.65;;;;;;;6.67;100.00;100484.98;1570867;90;20985;-63
2021/10/06 03:12:35;;;;;;;12.63;7.83;;;;;;;6.68;100.00;100488.07;1570777;90;21480;-63
2021/10/06 03:15:05;;;;;;;17.42;9.60;;;;;;;6.73;100.00;100493.03;1571614;90;21486;-63
2021/10/06 03:17:33;;;;;;;16.23;8.13;;;;;;;6.77;100.00;100491.39;1570506;91;21483;-63
2021/10/06 03:20:00;;;;;;;15.35;7.90;;;;;;;6.78;100.00;100490.12;1552975;91;21073;-62
2021/10/06 03:22:29;;;;;;;13.83;8.30;;;;;;;6.82;100.00;100492.00;1556127;91;21004;-63
2021/10/06 03:24:57;;;;;;;13.08;8.25;;;;;;;6.84;100.00;100491.63;1571996;90;21006;-65
2021/10/06 03:27:24;;;;;;;11.33;7.78;;;;;;;6.86;100.00;100489.94;1571606;90;21005;-64
2021/10/06 03:29:52;;;;;;;16.57;8.30;;;;;;;6.87;100.00;100489.09;1571272;90;20993;-62
2021/10/06 03:32:20;;;;;;;13.78;7.97;;;;;;;6.87;100.00;100499.58;1571799;90;21118;-64
2021/10/06 03:34:48;;;;;;;13.75;8.68;;;;;;;6.86;100.00;100492.56;1585079;89;21584;-65
2021/10/06 03:37:16;;;;;;;15.25;8.30;;;;;;;6.87;100.00;100496.07;1588793;89;21085;-64
2021/10/06 03:39:44;;;;;;;13.62;8.43;;;;;;;6.87;100.00;100493.45;1588423;89;20934;-64
2021/10/06 03:42:11;;;;;;;16.00;8.65;;;;;;;6.87;100.00;100502.63;1587895;89;20991;-65
2021/10/06 03:44:39;;;;;;;12.05;8.90;;;;;;;6.88;100.00;100500.05;1588443;89;21114;-66
2021/10/06 03:47:07;;;;;;;10.53;7.90;;;;;;;6.87;100.00;100503.94;1588320;89;21047;-66
2021/10/06 03:49:35;;;;;;;11.10;7.67;;;;;;;6.86;100.00;100495.18;1588375;89;20979;-65
2021/10/06 03:52:03;;;;;;;16.70;8.30;;;;;;;6.91;100.00;100499.25;1588020;89;21007;-65
2021/10/06 03:54:32;;;;;;;16.93;8.78;;;;;;;6.95;100.00;100498.08;1588156;89;20994;-67
2021/10/06 03:56:59;;;;;;;13.20;8.78;;;;;;;6.97;100.00;100499.86;1582291;89;22096;-67
2021/10/06 03:59:27;;;;;;;20.45;8.85;;;;;;;6.98;100.00;100496.39;1569371;90;20969;-68
2021/10/06 04:01:56;;;;;;;13.70;8.78;;;;;;;6.98;100.00;100499.02;1571826;91;21045;-69
2021/10/06 04:04:23;;;;;;;22.98;9.10;;;;;;;6.99;100.00;100496.43;1571058;91;20996;-67
2021/10/06 04:06:51;;;;;;;15.18;9.50;;;;;;;7.01;100.00;100489.92;1571721;90;21080;-68
2021/10/06 04:09:18;;;;;;;12.10;8.50;;;;;;;7.02;100.00;100497.84;1571474;91;21446;-64
2021/10/06 04:11:46;;;;;;;15.83;9.23;;;;;;;7.01;100.00;100493.86;1573125;90;20889;-64
2021/10/06 04:14:15;;;;;;;18.40;9.85;;;;;;;7.01;100.00;100504.34;1571790;89;21033;-64
2021/10/06 04:16:43;;;;;;;34.00;11.10;;;;;;;7.00;100.00;100506.08;1595100;90;21475;-65
2021/10/06 04:19:10;;;;;;;14.45;8.53;;;;;;;7.02;100.00;100509.64;1594861;88;21005;-65
2021/10/06 04:21:39;;;;;;;12.93;8.73;;;;;;;7.05;100.00;100510.16;1595071;90;21472;-65
2021/10/06 04:24:08;;;;;;;13.28;9.75;;;;;;;7.10;100.00;100502.03;1594748;88;21468;-67
2021/10/06 04:26:36;;;;;;;13.75;9.18;;;;;;;7.08;100.00;100503.69;1594993;88;21472;-67
2021/10/06 04:29:04;;;;;;;17.57;9.30;;;;;;;7.07;100.00;100500.17;1594936;89;21480;-67
2021/10/06 04:31:32;;;;;;;14.75;9.23;;;;;;;7.05;100.00;100502.28;1594927;88;20984;-67
2021/10/06 04:34:01;;;;;;;13.03;9.38;;;;;;;7.02;100.00;100504.39;1594621;90;21083;-67
2021/10/06 04:36:29;;;;;;;15.28;9.30;;;;;;;6.99;100.00;100504.30;1594277;90;20964;-67
2021/10/06 04:38:58;;;;;;;13.28;9.23;;;;;;;6.99;100.00;100499.05;1594165;89;21538;-68
2021/10/06 04:41:26;;;;;;;12.47;8.53;;;;;;;7.00;100.00;100496.90;1594316;89;21571;-67
2021/10/06 04:43:58;;;;;;;14.90;9.85;;;;;;;7.01;100.00;100490.81;1594240;88;21044;-67
2021/10/06 04:46:26;;;;;;;16.50;10.03;;;;;;;7.02;100.00;100491.70;1594287;88;21125;-66
2021/10/06 04:48:54;;;;;;;12.68;8.65;;;;;;;7.02;100.00;100492.59;1594297;89;20952;-67
2021/10/06 04:51:24;;;;;;;16.93;8.70;;;;;;;7.01;100.00;100495.16;1594526;89;20969;-67
2021/10/06 04:53:52;;;;;;;10.60;8.88;;;;;;;7.03;100.00;100502.66;1594457;89;20897;-67
2021/10/06 04:56:20;;;;;;;15.30;9.93;;;;;;;7.02;100.00;100501.77;1594500;89;21029;-67
2021/10/06 04:58:48;;;;;;;16.93;9.18;;;;;;;7.02;100.00;100510.06;1593945;88;21155;-67
2021/10/06 05:01:16;;;;;;;17.17;9.58;;;;;;;6.99;100.00;100508.23;1594207;89;20928;-66
2021/10/06 05:03:44;;;;;;;13.65;9.55;;;;;;;6.97;100.00;100512.97;1594218;88;20940;-66
2021/10/06 05:06:12;;;;;;;16.97;9.30;;;;;;;6.97;100.00;100511.66;1594554;89;20969;-66
2021/10/06 05:08:40;;;;;;;14.73;10.20;;;;;;;6.95;100.00;100516.44;1594255;90;20984;-66
2021/10/06 05:11:08;;;;;;;14.75;9.75;;;;;;;6.97;100.00;100519.53;1594760;89;21106;-66
2021/10/06 05:13:35;;;;;;;13.98;9.20;;;;;;;6.96;100.00;100525.20;1594798;89;21484;-66
2021/10/06 05:16:05;;;;;;;12.18;9.15;;;;;;;6.92;100.00;100527.27;1594878;88;20977;-66
2021/10/06 05:18:37;;;;;;;25.02;9.55;;;;;;;6.93;100.00;100528.63;1594765;88;20932;-66
2021/10/06 05:21:02;;;;;;;15.78;10.05;;;;;;;6.91;100.00;100530.31;1594419;88;21027;-65
2021/10/06 05:23:31;;;;;;;17.17;9.78;;;;;;;6.90;100.00;100525.91;1594325;88;21104;-66
2021/10/06 05:25:59;;;;;;;13.25;9.65;;;;;;;6.90;100.00;100518.45;1594301;88;20983;-67
2021/10/06 05:28:26;;;;;;;14.78;9.65;;;;;;;6.93;100.00;100523.38;1594339;88;21515;-67
2021/10/06 05:30:55;;;;;;;12.60;9.60;;;;;;;6.92;100.00;100528.58;1593870;88;21004;-66
2021/10/06 05:33:24;;;;;;;55.33;12.13;;;;;;;6.90;100.00;100523.70;1593929;88;20951;-67
2021/10/06 05:35:51;;;;;;;11.85;8.98;;;;;;;6.91;100.00;100529.42;1592632;88;21116;-66
2021/10/06 05:38:19;;;;;;;13.48;9.30;;;;;;;6.94;100.00;100529.52;1592881;88;20932;-66
2021/10/06 05:40:48;;;;;;;13.58;9.90;;;;;;;7.02;100.00;100532.36;1592465;89;21504;-66
2021/10/06 05:43:16;;;;;;;12.40;9.85;;;;;;;7.08;100.00;100537.38;1592510;88;21476;-67
2021/10/06 05:45:44;;;;;;;12.98;9.40;;;;;;;7.13;100.00;100537.55;1592620;88;20889;-67
2021/10/06 05:48:15;;;;;;;14.25;9.80;;;;;;;7.18;100.00;100535.52;1591507;88;21967;-67
2021/10/06 05:50:43;;;;;;;15.30;9.85;;;;;;;7.25;100.00;100532.66;1592100;90;20921;-67
2021/10/06 05:53:11;;;;;;;20.68;9.95;;;;;;;7.30;100.00;100534.98;1592504;88;21516;-66
2021/10/06 05:55:40;;;;;;;12.45;8.80;;;;;;;7.37;100.00;100528.17;1592664;88;21048;-65
2021/10/06 05:58:09;;;;;;;13.43;8.60;;;;;;;7.48;100.00;100539.45;1592978;88;20976;-66
2021/10/06 06:00:37;;;;;;;15.65;9.48;;;;;;;7.60;100.00;100535.42;1592820;88;21512;-67
2021/10/06 06:03:11;;;;;;;13.90;9.13;;;;;;;7.66;100.00;100533.84;1592719;90;21024;-65
2021/10/06 06:05:40;;;;;;;46.85;10.63;;;;;;;7.76;100.00;100528.42;1592517;89;20997;-65
2021/10/06 06:08:10;;;;;;;16.12;9.38;;;;;;;7.86;100.00;100535.70;1592787;88;20941;-66
2021/10/06 06:10:37;;;;;;;13.28;9.70;;;;;;;7.95;100.00;100535.05;1592623;88;21468;-66
2021/10/06 06:13:06;;;;;;;34.05;11.08;;;;;;;8.04;100.00;100537.92;1592825;88;21080;-66
2021/10/06 06:15:35;;;;;;;15.40;9.43;;;;;;;8.13;100.00;100532.51;1592387;89;20983;-66
2021/10/06 06:18:03;;;;;;;11.93;9.10;;;;;;;8.21;100.00;100535.33;1593342;89;20937;-67
2021/10/06 06:20:32;;;;;;;12.15;8.08;;;;;;;8.32;100.00;100529.92;1600276;88;20888;-66
2021/10/06 06:23:00;;;;;;;15.32;9.10;;;;;;;8.47;100.00;100538.64;1600541;88;20947;-66
2021/10/06 06:25:29;;;;;;;14.18;9.05;;;;;;;8.59;100.00;100545.55;1599392;88;21091;-66
2021/10/06 06:27:56;;;;;;;18.10;9.30;;;;;;;8.69;100.00;100540.08;1592954;88;20905;-67
2021/10/06 06:30:25;;;;;;;14.55;9.85;;;;;;;8.81;100.00;100542.98;1592931;89;20977;-65
2021/10/06 06:32:54;;;;;;;14.38;9.35;;;;;;;8.93;100.00;100536.69;1592977;89;20937;-67
2021/10/06 06:35:23;;;;;;;20.35;9.15;;;;;;;9.06;100.00;100543.14;1593770;88;20936;-67
2021/10/06 06:37:52;;;;;;;18.00;9.80;;;;;;;9.16;100.00;100538.53;1594259;90;21059;-67
2021/10/06 06:40:19;;;;;;;16.97;9.35;;;;;;;9.27;100.00;100527.80;1594345;90;21444;-67
2021/10/06 06:42:48;;;;;;;13.13;9.05;;;;;;;9.37;100.00;100536.36;1594413;89;21472;-67
2021/10/06 06:45:16;;;;;;;13.30;8.28;;;;;;;9.50;100.00;100531.37;1594288;90;21468;-67
2021/10/06 06:47:45;;;;;;;17.05;9.13;;;;;;;9.58;100.00;100525.39;1594817;88;21487;-67
2021/10/06 06:50:16;;;;;;;13.65;9.23;;;;;;;9.70;100.00;100527.38;1594321;89;21106;-67
2021/10/06 06:52:44;;;;;;;13.38;8.45;;;;;;;9.82;100.00;100524.09;1592933;88;20929;-67
2021/10/06 06:55:13;;;;;;;67.47;11.70;;;;;;;9.93;100.00;100524.77;1593907;88;20932;-67
2021/10/06 06:57:41;;;;;;;13.03;8.95;;;;;;;10.03;100.00;100529.35;1594435;88;21047;-67
2021/10/06 07:00:10;;;;;;;12.93;8.80;;;;;;;10.16;100.00;100522.98;1594132;88;21084;-67
2021/10/06 07:02:39;;;;;;;15.05;9.00;;;;;;;10.27;100.00;100524.97;1595473;88;21117;-67
2021/10/06 07:05:08;;;;;;;12.98;8.48;;;;;;;10.40;100.00;100526.05;1594180;88;20916;-67
2021/10/06 07:07:36;;;;;;;90.53;14.53;;;;;;;10.50;100.00;100517.89;1594375;88;20908;-67
2021/10/06 07:10:07;;;;;;;20.80;9.28;;;;;;;10.61;100.00;100509.71;1594095;88;20932;-67
2021/10/06 07:12:35;;;;;;;12.05;7.58;;;;;;;10.72;100.00;100512.97;1594505;88;20991;-67
2021/10/06 07:15:03;;;;;;;12.05;8.00;;;;;;;10.84;100.00;100515.33;1594219;88;21107;-67
2021/10/06 07:17:32;;;;;;;36.60;8.78;;;;;;;10.97;100.00;100513.34;1594527;88;21412;-67
2021/10/06 07:20:02;;;;;;;14.33;8.30;;;;;;;11.11;100.00;100505.18;1594100;88;20909;-67
2021/10/06 07:22:31;;;;;;;12.95;7.78;;;;;;;11.23;100.00;100509.30;1594271;88;20925;-66
2021/10/06 07:25:00;;;;;;;10.28;7.65;;;;;;;11.33;100.00;100508.55;1594541;88;20981;-67
2021/10/06 07:27:28;;;;;;;11.38;7.03;;;;;;;11.44;100.00;100509.14;1594174;90;21061;-67
2021/10/06 07:29:55;;;;;;;13.25;7.60;;;;;;;11.55;100.00;100509.72;1574988;88;21425;-67
2021/10/06 07:32:23;;;;;;;13.55;7.30;;;;;;;11.67;100.00;100509.85;1594253;88;20933;-67
2021/10/06 07:34:51;;;;;;;15.13;7.20;;;;;;;11.77;100.00;100514.80;1594311;88;20933;-67
2021/10/06 07:37:19;;;;;;;12.90;7.83;;;;;;;11.85;100.00;100508.34;1594290;88;21539;-66
2021/10/06 07:39:47;;;;;;;17.07;7.60;;;;;;;11.92;100.00;100510.17;1594253;90;21824;-66
2021/10/06 07:42:15;;;;;;;11.10;6.83;;;;;;;11.98;100.00;100508.48;1594194;89;21028;-66
2021/10/06 07:44:47;;;;;;;11.80;6.75;;;;;;;12.06;100.00;100511.63;1594225;90;21590;-67
2021/10/06 07:47:15;;;;;;;16.37;7.72;;;;;;;12.12;100.00;100516.54;1594670;90;21062;-67
2021/10/06 07:49:43;;;;;;;9.40;6.67;;;;;;;12.17;100.00;100516.58;1594197;89;20996;-67
2021/10/06 07:52:11;;;;;;;13.38;6.80;;;;;;;12.21;100.00;100513.09;1594464;90;21087;-67
2021/10/06 07:54:39;;;;;;;15.20;6.60;;;;;;;12.24;100.00;100510.04;1594256;88;21429;-67
2021/10/06 07:57:07;;;;;;;17.48;6.47;;;;;;;12.31;100.00;100503.07;1594157;88;20968;-67
2021/10/06 07:59:37;;;;;;;15.15;6.15;;;;;;;12.39;100.00;100500.05;1594397;89;21448;-65
2021/10/06 08:02:04;;;;;;;12.55;6.75;;;;;;;12.47;100.00;100500.11;1594370;88;21483;-67
2021/10/06 08:04:32;;;;;;;12.28;6.53;;;;;;;12.54;100.00;100493.98;1594255;88;21164;-67
2021/10/06 08:07:00;;;;;;;11.35;5.92;;;;;;;12.64;100.00;100500.23;1594229;90;20908;-67
2021/10/06 08:09:28;;;;;;;10.72;6.35;;;;;;;12.74;100.00;100501.63;1594568;89;20902;-67
2021/10/06 08:11:55;;;;;;;11.18;6.60;;;;;;;12.84;100.00;100494.66;1594334;88;21448;-67
2021/10/06 08:14:24;;;;;;;9.28;6.60;;;;;;;12.98;100.00;100501.36;1594245;88;20989;-67
2021/10/06 08:16:56;;;;;;;14.83;6.53;;;;;;;13.09;100.00;100489.05;1594193;90;20913;-67
2021/10/06 08:19:24;;;;;;;12.43;6.15;;;;;;;13.17;99.94;100491.33;1594231;90;20937;-65
2021/10/06 08:21:52;;;;;;;11.00;5.83;;;;;;;13.30;99.06;100486.56;1594249;90;20980;-66
2021/10/06 08:24:20;;;;;;;13.15;5.87;;;;;;;13.43;97.44;100484.41;1594456;88;21035;-67
2021/10/06 08:26:48;;;;;;;9.40;5.12;;;;;;;13.55;95.84;100492.84;1594274;88;20940;-67
2021/10/06 08:29:17;;;;;;;11.12;4.90;;;;;;;13.67;93.61;100476.96;1594053;88;21617;-65
2021/10/06 08:31:45;;;;;;;29.32;4.95;;;;;;;13.80;89.77;100477.47;1593786;88;20893;-65
2021/10/06 08:34:12;;;;;;;13.08;5.20;;;;;;;13.96;87.53;100485.44;1594469;88;21017;-63
2021/10/06 08:36:40;;;;;;;12.65;5.25;;;;;;;14.07;84.76;100488.99;1602953;89;21467;-65
2021/10/06 08:39:08;;;;;;;6.22;4.50;;;;;;;14.15;82.73;100483.25;1602788;88;21538;-67
2021/10/06 08:41:36;;;;;;;8.53;4.70;;;;;;;14.25;80.91;100482.84;1603495;88;21106;-66
2021/10/06 08:44:04;;;;;;;9.60;5.12;;;;;;;14.38;79.08;100484.61;1603938;88;20977;-64
2021/10/06 08:46:33;;;;;;;8.98;5.12;;;;;;;14.44;74.75;100487.30;1603555;88;21001;-66
2021/10/06 08:49:00;;;;;;;10.10;4.42;;;;;;;14.49;74.43;100484.19;1603443;88;21474;-66
2021/10/06 08:51:28;;;;;;;10.15;4.45;;;;;;;14.61;72.82;100486.83;1603615;88;20939;-65
2021/10/06 08:53:57;;;;;;;9.98;4.67;;;;;;;14.71;71.55;100481.09;1603097;89;21091;-64
2021/10/06 08:56:27;;;;;;;23.05;4.80;;;;;;;14.79;70.91;100477.98;1603486;88;20956;-65
2021/10/06 08:58:56;;;;;;;21.30;4.87;;;;;;;14.92;69.78;100468.20;1602411;89;21527;-65
2021/10/06 09:01:26;;;;;;;11.10;3.98;;;;;;;15.01;66.87;100473.49;1595157;88;20972;-60
2021/10/06 09:04:03;;;;;;;12.80;4.85;;;;;;;15.09;66.79;100479.66;1601375;89;20987;-62
2021/10/06 09:06:39;;;;;;;11.55;5.17;;;;;;;15.18;65.59;100464.16;1603403;89;21159;-63
2021/10/06 09:09:26;;;;;;;10.18;4.80;;;;;;;15.21;62.13;100472.13;1603582;89;20927;-66
2021/10/06 09:11:55;;;;;;;6.10;3.92;;;;;;;15.17;61.05;100475.23;1603562;88;21031;-62
2021/10/06 09:14:24;;;;;;;6.95;3.00;;;;;;;15.09;59.94;100475.23;1603921;89;21557;-62
2021/10/06 09:17:06;;;;;;;15.63;3.52;;;;;;;15.10;58.34;100472.13;1603555;88;21609;-62
2021/10/06 09:19:39;;;;;;;5.65;2.87;;;;;;;15.20;55.31;100481.88;1603747;89;21453;-62
2021/10/06 09:22:27;;;;;;;11.10;3.10;;;;;;;15.28;53.52;100468.11;1602321;88;21442;-62
2021/10/06 09:25:03;;;;;;;6.40;3.30;;;;;;;15.38;52.97;100459.64;1602921;88;20979;-63
2021/10/06 09:27:36;;;;;;;8.33;2.90;;;;;;;15.50;51.50;100460.91;1603610;89;20985;-63
2021/10/06 09:30:11;;;;;;;17.32;3.60;;;;;;;15.55;49.86;100476.39;1602810;89;21041;-62
2021/10/06 09:32:42;;;;;;;16.48;3.30;;;;;;;15.56;48.57;100468.85;1602774;88;21925;-62
2021/10/06 09:35:19;;;;;;;7.50;2.72;;;;;;;15.58;46.75;100466.22;1600358;88;21558;-62
2021/10/06 09:37:54;;;;;;;11.20;3.08;;;;;;;15.51;45.41;100466.66;1594896;90;20982;-62
2021/10/06 09:40:24;;;;;;;12.85;3.10;;;;;;;15.43;44.59;100474.68;1594864;88;21004;-63
2021/10/06 09:43:01;;;;;;;7.00;2.87;;;;;;;15.44;44.81;100453.84;1595505;88;21012;-62
2021/10/06 09:45:39;;;;;;;6.22;3.05;;;;;;;15.54;44.93;100453.34;1595379;90;21536;-62
2021/10/06 09:48:12;;;;;;;10.82;2.98;;;;;;;15.64;44.38;100463.55;1595928;89;20928;-63
2021/10/06 09:50:50;;;;;;;9.98;2.95;;;;;;;15.72;44.83;100453.75;1594771;88;20957;-62
2021/10/06 09:53:21;;;;;;;13.35;3.00;;;;;;;15.90;44.35;100470.03;1596167;88;21497;-63
2021/10/06 09:55:51;;;;;;;11.22;2.98;;;;;;;15.96;42.69;100462.02;1596062;90;20904;-62
2021/10/06 09:58:19;;;;;;;8.03;3.40;;;;;;;15.90;42.04;100467.37;1596542;88;21103;-62
2021/10/06 10:00:49;;;;;;;7.25;3.70;;;;;;;15.80;41.69;100469.22;1596619;90;20949;-62
2021/10/06 10:03:17;;;;;;;34.45;5.17;;;;;;;15.80;41.69;100469.22;1595973;89;20916;-62
2021/10/06 10:05:45;;;;;;;7.42;3.95;;;;;;;15.82;41.44;100463.44;1579021;90;21036;-62
2021/10/06 10:08:12;;;;;;;11.97;4.03;;;;;;;15.91;41.43;100463.82;1596205;88;20944;-62
2021/10/06 10:10:40;;;;;;;13.15;4.90;;;;;;;15.91;41.43;100463.82;1596709;88;21478;-62
2021/10/06 10:13:08;;;;;;;9.38;5.40;;;;;;;16.03;40.76;100461.07;1596437;88;20869;-62
2021/10/06 10:15:36;;;;;;;10.63;4.28;;;;;;;16.10;40.58;100452.17;1596260;90;21483;-62
2021/10/06 10:18:07;;;;;;;19.37;6.90;;;;;;;16.19;40.50;100447.22;1596490;89;20940;-62
2021/10/06 10:20:42;;;;;;;16.27;10.25;;;;;;;16.23;40.44;100447.19;1578474;90;20980;-62
2021/10/06 10:23:13;;;;;;;15.55;11.35;;;;;;;16.23;40.40;100447.19;1596579;90;21103;-63
2021/10/06 10:25:43;;;;;;;12.85;10.28;;;;;;;16.13;40.10;100444.61;1596774;88;20924;-63
2021/10/06 10:28:15;;;;;;;11.63;5.90;;;;;;;15.99;40.15;100449.56;1596250;88;20972;-63
2021/10/06 10:30:59;;;;;;;4.40;3.62;;;;;;;15.80;40.43;100447.94;1596745;88;20976;-63
2021/10/06 10:33:43;;;;;;;10.30;2.98;;;;;;;15.73;40.79;100451.08;1595845;88;20988;-63
2021/10/06 10:36:37;;;;;;;7.85;3.30;;;;;;;15.71;41.23;100436.91;1595393;88;21174;-63
2021/10/06 10:39:08;;;;;;;8.33;3.85;;;;;;;15.83;41.52;100439.93;1594271;90;20921;-62
2021/10/06 10:41:44;;;;;;;3.87;3.15;;;;;;;15.86;41.52;100437.69;1591634;89;20901;-62
2021/10/06 10:44:11;;;;;;;5.22;3.15;;;;;;;15.83;40.78;100440.37;1594293;88;20896;-62
2021/10/06 10:47:02;;;;;;;29.70;4.47;;;;;;;15.76;40.67;100434.21;1594559;88;20936;-63
2021/10/06 10:49:55;;;;;;;4.80;2.87;;;;;;;15.81;40.51;100440.83;1594465;88;21610;-62
2021/10/06 10:52:46;;;;;;;4.25;3.85;;;;;;;15.89;40.29;100438.55;1594294;89;21187;-62
2021/10/06 10:55:15;;;;;;;26.65;5.67;;;;;;;15.92;40.46;100431.88;1588109;89;20997;-63
2021/10/06 10:57:43;;;;;;;7.55;3.95;;;;;;;15.92;40.46;100431.88;1594880;88;20972;-62
2021/10/06 11:00:30;;;;;;;7.12;3.10;;;;;;;15.98;40.58;100439.81;1594327;88;21455;-62
2021/10/06 11:03:01;;;;;;;12.07;3.02;;;;;;;16.08;40.48;100430.42;1594313;88;21164;-62
2021/10/06 11:05:47;;;;;;;5.78;3.17;;;;;;;16.22;40.51;100434.77;1594228;90;20941;-62
2021/10/06 11:08:37;;;;;;;4.53;2.80;;;;;;;16.30;39.83;100442.23;1594271;89;21541;-62
2021/10/06 11:11:19;;;;;;;5.80;2.87;;;;;;;16.19;39.67;100448.56;1593924;90;20928;-62
2021/10/06 11:13:48;;;;;;;6.08;2.85;;;;;;;16.05;39.48;100440.65;1594229;88;20976;-63
2021/10/06 11:16:15;;;;;;;18.00;3.62;;;;;;;15.99;39.75;100426.06;1594221;89;21136;-63
2021/10/06 11:18:57;;;;;;;8.33;2.95;;;;;;;16.23;39.60;100428.55;1594280;88;20932;-62
2021/10/06 11:21:37;;;;;;;4.42;2.85;;;;;;;16.23;39.60;100428.55;1593963;88;20965;-62
2021/10/06 11:24:22;;;;;;;;;;;;;;;16.28;39.93;100424.52;1596832;89;21108;-62
2021/10/06 11:26:58;;;;;;;12.07;4.72;;;;;;;16.00;38.97;100434.48;1594423;90;20095;-63
2021/10/06 11:29:26;;;;;;;6.35;4.65;;;;;;;15.66;38.89;100421.87;1594491;88;21102;-61